METAR Data
IDs: Format: Raw Decoded Include TAF

Data at: 0654 UTC 24 Jan 2019

METAR for:KFWA (Fort Wayne Intl, IN, US)
Text:KFWA 240632Z 31009KT 8SM BKN009 OVC013 M01/M03 A2977 RMK AO2 FZDZE32 P0000 I1000 T10111033 $
Temperature: -1.1°C ( 30°F)
Dewpoint: -3.3°C ( 26°F) [RH = 85%]
Pressure (altimeter):29.77 inches Hg (1008.2 mb)
Winds:from the NW (310 degrees) at 10 MPH (9 knots; 4.6 m/s)
Visibility: 8 sm ( 13 km)
Ceiling:900 feet AGL
Clouds: broken clouds at 900 feet AGL, overcast cloud deck at 1300 feet AGL
QC Flag:SOME DATA ABOVE MAY BE INACCURATE!!!"$" is an indication the sensor requires maintenance.